sensor_id;sensor_type;location;lat;lon;timestamp;temperature;humidity
43679;DHT22;29279;50.858;4.392;2022-12-08T00:00:36;5.90;99.90
43679;DHT22;29279;50.858;4.392;2022-12-08T00:03:02;5.90;99.90
43679;DHT22;29279;50.858;4.392;2022-12-08T00:05:28;6.00;99.90
43679;DHT22;29279;50.858;4.392;2022-12-08T00:08:12;6.00;99.90
43679;DHT22;29279;50.858;4.392;2022-12-08T00:10:56;6.10;99.90
43679;DHT22;29279;50.858;4.392;2022-12-08T00:13:22;6.00;99.90
43679;DHT22;29279;50.858;4.392;2022-12-08T00:15:48;6.00;99.90
43679;DHT22;29279;50.858;4.392;2022-12-08T00:18:13;5.80;99.90
43679;DHT22;29279;50.858;4.392;2022-12-08T00:20:39;5.70;99.90
43679;DHT22;29279;50.858;4.392;2022-12-08T00:23:05;5.70;99.90
43679;DHT22;29279;50.858;4.392;2022-12-08T00:25:34;5.60;99.90
43679;DHT22;29279;50.858;4.392;2022-12-08T00:28:00;5.60;99.90
43679;DHT22;29279;50.858;4.392;2022-12-08T00:30:25;5.60;99.90
43679;DHT22;29279;50.858;4.392;2022-12-08T00:32:51;5.60;99.90
43679;DHT22;29279;50.858;4.392;2022-12-08T00:35:16;5.60;99.90
43679;DHT22;29279;50.858;4.392;2022-12-08T00:37:42;5.40;99.90
43679;DHT22;29279;50.858;4.392;2022-12-08T00:40:08;5.30;99.90
43679;DHT22;29279;50.858;4.392;2022-12-08T00:42:34;5.30;99.90
43679;DHT22;29279;50.858;4.392;2022-12-08T00:44:59;5.30;99.90
43679;DHT22;29279;50.858;4.392;2022-12-08T00:47:25;5.30;99.90
43679;DHT22;29279;50.858;4.392;2022-12-08T00:49:50;5.20;99.90
43679;DHT22;29279;50.858;4.392;2022-12-08T00:52:16;5.20;99.90
43679;DHT22;29279;50.858;4.392;2022-12-08T00:54:42;5.20;99.90
43679;DHT22;29279;50.858;4.392;2022-12-08T00:57:08;5.20;99.90
43679;DHT22;29279;50.858;4.392;2022-12-08T00:59:33;5.30;99.90
43679;DHT22;29279;50.858;4.392;2022-12-08T01:01:59;5.20;99.90
43679;DHT22;29279;50.858;4.392;2022-12-08T01:04:25;5.10;99.90
43679;DHT22;29279;50.858;4.392;2022-12-08T01:06:51;5.00;99.90
43679;DHT22;29279;50.858;4.392;2022-12-08T01:09:17;5.00;99.90
43679;DHT22;29279;50.858;4.392;2022-12-08T01:11:43;5.00;99.90
43679;DHT22;29279;50.858;4.392;2022-12-08T01:14:09;4.90;99.90
43679;DHT22;29279;50.858;4.392;2022-12-08T01:16:35;4.90;99.90
43679;DHT22;29279;50.858;4.392;2022-12-08T01:19:02;4.90;99.90
43679;DHT22;29279;50.858;4.392;2022-12-08T01:21:28;4.90;99.90
43679;DHT22;29279;50.858;4.392;2022-12-08T01:23:54;4.90;99.90
43679;DHT22;29279;50.858;4.392;2022-12-08T01:26:20;4.70;99.90
43679;DHT22;29279;50.858;4.392;2022-12-08T01:28:46;4.70;99.90
43679;DHT22;29279;50.858;4.392;2022-12-08T01:31:17;4.60;99.90
43679;DHT22;29279;50.858;4.392;2022-12-08T01:33:43;4.60;99.90
43679;DHT22;29279;50.858;4.392;2022-12-08T01:36:19;4.50;99.90
43679;DHT22;29279;50.858;4.392;2022-12-08T01:38:45;4.60;99.90
43679;DHT22;29279;50.858;4.392;2022-12-08T01:41:19;4.70;99.90
43679;DHT22;29279;50.858;4.392;2022-12-08T01:46:34;4.70;99.90
43679;DHT22;29279;50.858;4.392;2022-12-08T01:49:06;4.70;99.90
43679;DHT22;29279;50.858;4.392;2022-12-08T01:51:37;4.60;99.90
43679;DHT22;29279;50.858;4.392;2022-12-08T01:54:06;4.50;99.90
43679;DHT22;29279;50.858;4.392;2022-12-08T01:56:40;4.50;99.90
43679;DHT22;29279;50.858;4.392;2022-12-08T01:59:07;4.50;99.90
43679;DHT22;29279;50.858;4.392;2022-12-08T02:01:33;4.50;99.90
43679;DHT22;29279;50.858;4.392;2022-12-08T02:04:01;4.40;99.90
43679;DHT22;29279;50.858;4.392;2022-12-08T02:06:34;4.40;99.90
43679;DHT22;29279;50.858;4.392;2022-12-08T02:09:01;4.40;99.90
43679;DHT22;29279;50.858;4.392;2022-12-08T02:11:28;4.40;99.90
43679;DHT22;29279;50.858;4.392;2022-12-08T02:13:54;4.40;99.90
43679;DHT22;29279;50.858;4.392;2022-12-08T02:22:23;4.40;99.90
43679;DHT22;29279;50.858;4.392;2022-12-08T02:27:54;4.40;99.90
43679;DHT22;29279;50.858;4.392;2022-12-08T02:30:35;4.40;99.90
43679;DHT22;29279;50.858;4.392;2022-12-08T02:33:23;4.30;99.90
43679;DHT22;29279;50.858;4.392;2022-12-08T02:36:05;4.20;99.90
43679;DHT22;29279;50.858;4.392;2022-12-08T02:44:20;4.10;99.90
43679;DHT22;29279;50.858;4.392;2022-12-08T02:46:55;4.10;99.90
43679;DHT22;29279;50.858;4.392;2022-12-08T02:49:27;4.00;99.90
43679;DHT22;29279;50.858;4.392;2022-12-08T02:52:04;4.00;99.90
43679;DHT22;29279;50.858;4.392;2022-12-08T02:54:29;4.00;99.90
43679;DHT22;29279;50.858;4.392;2022-12-08T03:00:13;4.10;99.90
43679;DHT22;29279;50.858;4.392;2022-12-08T03:10:39;4.30;99.90
43679;DHT22;29279;50.858;4.392;2022-12-08T03:15:37;4.40;99.90
43679;DHT22;29279;50.858;4.392;2022-12-08T03:18:06;4.50;99.90
43679;DHT22;29279;50.858;4.392;2022-12-08T03:20:33;4.40;99.90
43679;DHT22;29279;50.858;4.392;2022-12-08T03:23:01;4.30;99.90
43679;DHT22;29279;50.858;4.392;2022-12-08T03:25:31;4.40;99.90
43679;DHT22;29279;50.858;4.392;2022-12-08T03:27:58;4.20;99.90
43679;DHT22;29279;50.858;4.392;2022-12-08T03:30:26;4.30;99.90
43679;DHT22;29279;50.858;4.392;2022-12-08T03:33:00;4.30;99.90
43679;DHT22;29279;50.858;4.392;2022-12-08T03:35:30;4.20;99.90
43679;DHT22;29279;50.858;4.392;2022-12-08T03:38:07;4.20;99.90
43679;DHT22;29279;50.858;4.392;2022-12-08T03:40:33;4.20;99.90
43679;DHT22;29279;50.858;4.392;2022-12-08T03:42:59;4.30;99.90
43679;DHT22;29279;50.858;4.392;2022-12-08T03:45:25;4.30;99.90
43679;DHT22;29279;50.858;4.392;2022-12-08T03:47:51;4.30;99.90
43679;DHT22;29279;50.858;4.392;2022-12-08T03:50:16;4.30;99.90
43679;DHT22;29279;50.858;4.392;2022-12-08T03:52:42;4.40;99.90
43679;DHT22;29279;50.858;4.392;2022-12-08T03:55:08;4.30;99.90
43679;DHT22;29279;50.858;4.392;2022-12-08T03:57:34;4.30;99.90
43679;DHT22;29279;50.858;4.392;2022-12-08T04:00:00;4.30;99.90
43679;DHT22;29279;50.858;4.392;2022-12-08T04:02:26;4.30;99.90
43679;DHT22;29279;50.858;4.392;2022-12-08T04:04:51;4.30;99.90
43679;DHT22;29279;50.858;4.392;2022-12-08T04:07:17;4.30;99.90
43679;DHT22;29279;50.858;4.392;2022-12-08T04:09:43;4.30;99.90
43679;DHT22;29279;50.858;4.392;2022-12-08T04:12:09;4.50;99.90
43679;DHT22;29279;50.858;4.392;2022-12-08T04:14:35;4.60;99.90
43679;DHT22;29279;50.858;4.392;2022-12-08T04:17:01;4.50;99.90
43679;DHT22;29279;50.858;4.392;2022-12-08T04:19:27;4.60;99.90
43679;DHT22;29279;50.858;4.392;2022-12-08T04:21:52;4.60;99.90
43679;DHT22;29279;50.858;4.392;2022-12-08T04:24:18;4.60;99.90
43679;DHT22;29279;50.858;4.392;2022-12-08T04:26:46;4.50;99.90
43679;DHT22;29279;50.858;4.392;2022-12-08T04:29:14;4.50;99.90
43679;DHT22;29279;50.858;4.392;2022-12-08T04:31:39;4.60;99.90
43679;DHT22;29279;50.858;4.392;2022-12-08T04:34:09;4.50;99.90
43679;DHT22;29279;50.858;4.392;2022-12-08T04:36:34;4.40;99.90
43679;DHT22;29279;50.858;4.392;2022-12-08T04:39:00;4.30;99.90
43679;DHT22;29279;50.858;4.392;2022-12-08T04:41:27;4.40;99.90
43679;DHT22;29279;50.858;4.392;2022-12-08T04:43:53;4.50;99.90
43679;DHT22;29279;50.858;4.392;2022-12-08T04:46:18;4.50;99.90
43679;DHT22;29279;50.858;4.392;2022-12-08T04:48:44;4.50;99.90
43679;DHT22;29279;50.858;4.392;2022-12-08T04:51:17;4.60;99.90
43679;DHT22;29279;50.858;4.392;2022-12-08T04:53:44;4.60;99.90
43679;DHT22;29279;50.858;4.392;2022-12-08T04:56:11;4.70;99.90
43679;DHT22;29279;50.858;4.392;2022-12-08T04:58:37;4.70;99.90
43679;DHT22;29279;50.858;4.392;2022-12-08T05:01:04;4.60;99.90
43679;DHT22;29279;50.858;4.392;2022-12-08T05:03:29;4.60;99.90
43679;DHT22;29279;50.858;4.392;2022-12-08T05:05:55;4.60;99.90
43679;DHT22;29279;50.858;4.392;2022-12-08T05:08:23;4.60;99.90
43679;DHT22;29279;50.858;4.392;2022-12-08T05:10:48;4.50;99.90
43679;DHT22;29279;50.858;4.392;2022-12-08T05:13:14;4.30;99.90
43679;DHT22;29279;50.858;4.392;2022-12-08T05:15:40;4.30;99.90
43679;DHT22;29279;50.858;4.392;2022-12-08T05:18:05;4.40;99.90
43679;DHT22;29279;50.858;4.392;2022-12-08T05:20:32;4.40;99.90
43679;DHT22;29279;50.858;4.392;2022-12-08T05:22:57;4.40;99.90
43679;DHT22;29279;50.858;4.392;2022-12-08T05:25:23;4.30;99.90
43679;DHT22;29279;50.858;4.392;2022-12-08T05:27:49;4.20;99.90
43679;DHT22;29279;50.858;4.392;2022-12-08T05:30:14;4.20;99.90
43679;DHT22;29279;50.858;4.392;2022-12-08T05:32:40;4.20;99.90
43679;DHT22;29279;50.858;4.392;2022-12-08T05:35:06;4.20;99.90
43679;DHT22;29279;50.858;4.392;2022-12-08T05:37:32;4.20;99.90
43679;DHT22;29279;50.858;4.392;2022-12-08T05:39:57;4.30;99.90
43679;DHT22;29279;50.858;4.392;2022-12-08T05:42:23;4.30;99.90
43679;DHT22;29279;50.858;4.392;2022-12-08T05:44:49;4.20;99.90
43679;DHT22;29279;50.858;4.392;2022-12-08T05:47:14;4.00;99.90
43679;DHT22;29279;50.858;4.392;2022-12-08T05:49:40;4.00;99.90
43679;DHT22;29279;50.858;4.392;2022-12-08T05:52:05;4.10;99.90
43679;DHT22;29279;50.858;4.392;2022-12-08T05:54:31;4.00;99.90
43679;DHT22;29279;50.858;4.392;2022-12-08T05:56:57;4.10;99.90
43679;DHT22;29279;50.858;4.392;2022-12-08T05:59:22;4.10;99.90
43679;DHT22;29279;50.858;4.392;2022-12-08T06:01:48;4.00;99.90
43679;DHT22;29279;50.858;4.392;2022-12-08T06:04:14;4.00;99.90
43679;DHT22;29279;50.858;4.392;2022-12-08T06:06:39;4.00;99.90
43679;DHT22;29279;50.858;4.392;2022-12-08T06:09:05;4.10;99.90
43679;DHT22;29279;50.858;4.392;2022-12-08T06:11:31;4.10;99.90
43679;DHT22;29279;50.858;4.392;2022-12-08T06:13:58;4.10;99.90
43679;DHT22;29279;50.858;4.392;2022-12-08T06:16:25;4.00;99.90
43679;DHT22;29279;50.858;4.392;2022-12-08T06:18:51;4.10;99.90
43679;DHT22;29279;50.858;4.392;2022-12-08T06:21:18;4.20;99.90
43679;DHT22;29279;50.858;4.392;2022-12-08T06:23:47;4.20;99.90
43679;DHT22;29279;50.858;4.392;2022-12-08T06:26:14;4.10;99.90
43679;DHT22;29279;50.858;4.392;2022-12-08T06:28:42;4.10;99.90
43679;DHT22;29279;50.858;4.392;2022-12-08T06:31:14;4.10;99.90
43679;DHT22;29279;50.858;4.392;2022-12-08T06:33:40;4.10;99.90
43679;DHT22;29279;50.858;4.392;2022-12-08T06:36:06;4.20;99.90
43679;DHT22;29279;50.858;4.392;2022-12-08T06:38:32;4.30;99.90
43679;DHT22;29279;50.858;4.392;2022-12-08T06:40:58;4.30;99.90
43679;DHT22;29279;50.858;4.392;2022-12-08T06:43:25;4.30;99.90
43679;DHT22;29279;50.858;4.392;2022-12-08T06:45:51;4.40;99.90
43679;DHT22;29279;50.858;4.392;2022-12-08T06:48:17;4.30;99.90
43679;DHT22;29279;50.858;4.392;2022-12-08T06:50:43;4.40;99.90
43679;DHT22;29279;50.858;4.392;2022-12-08T06:53:15;4.30;99.90
43679;DHT22;29279;50.858;4.392;2022-12-08T06:55:52;4.30;99.90
43679;DHT22;29279;50.858;4.392;2022-12-08T06:58:19;4.30;99.90
43679;DHT22;29279;50.858;4.392;2022-12-08T07:00:45;4.20;99.90
43679;DHT22;29279;50.858;4.392;2022-12-08T07:03:11;4.30;99.90
43679;DHT22;29279;50.858;4.392;2022-12-08T07:05:37;4.30;99.90
43679;DHT22;29279;50.858;4.392;2022-12-08T07:08:05;4.30;99.90
43679;DHT22;29279;50.858;4.392;2022-12-08T07:10:31;4.40;99.90
43679;DHT22;29279;50.858;4.392;2022-12-08T07:12:57;4.30;99.90
43679;DHT22;29279;50.858;4.392;2022-12-08T07:15:22;4.20;99.90
43679;DHT22;29279;50.858;4.392;2022-12-08T07:17:48;4.30;99.90
43679;DHT22;29279;50.858;4.392;2022-12-08T07:20:14;4.30;99.90
43679;DHT22;29279;50.858;4.392;2022-12-08T07:22:40;4.30;99.90
43679;DHT22;29279;50.858;4.392;2022-12-08T07:25:06;4.30;99.90
43679;DHT22;29279;50.858;4.392;2022-12-08T07:27:32;4.40;99.90
43679;DHT22;29279;50.858;4.392;2022-12-08T07:29:58;4.40;99.90
43679;DHT22;29279;50.858;4.392;2022-12-08T07:32:23;4.40;99.90
43679;DHT22;29279;50.858;4.392;2022-12-08T07:34:49;4.30;99.90
43679;DHT22;29279;50.858;4.392;2022-12-08T07:37:14;4.30;99.90
43679;DHT22;29279;50.858;4.392;2022-12-08T07:39:40;4.30;99.90
43679;DHT22;29279;50.858;4.392;2022-12-08T07:42:06;4.20;99.90
43679;DHT22;29279;50.858;4.392;2022-12-08T07:44:31;4.30;99.90
43679;DHT22;29279;50.858;4.392;2022-12-08T07:46:57;4.40;99.90
43679;DHT22;29279;50.858;4.392;2022-12-08T07:49:23;4.40;99.90
43679;DHT22;29279;50.858;4.392;2022-12-08T07:51:48;4.60;99.90
43679;DHT22;29279;50.858;4.392;2022-12-08T07:54:14;4.60;99.90
43679;DHT22;29279;50.858;4.392;2022-12-08T07:56:40;4.40;99.90
43679;DHT22;29279;50.858;4.392;2022-12-08T07:59:05;4.40;99.90
43679;DHT22;29279;50.858;4.392;2022-12-08T08:01:32;4.40;99.90
43679;DHT22;29279;50.858;4.392;2022-12-08T08:04:00;4.40;99.90
43679;DHT22;29279;50.858;4.392;2022-12-08T08:06:26;4.40;99.90
43679;DHT22;29279;50.858;4.392;2022-12-08T08:08:52;4.40;99.90
43679;DHT22;29279;50.858;4.392;2022-12-08T08:11:18;4.40;99.90
43679;DHT22;29279;50.858;4.392;2022-12-08T08:13:44;4.30;99.90
43679;DHT22;29279;50.858;4.392;2022-12-08T08:16:10;4.30;99.90
43679;DHT22;29279;50.858;4.392;2022-12-08T08:18:38;4.20;99.90
43679;DHT22;29279;50.858;4.392;2022-12-08T08:21:05;4.20;99.90
43679;DHT22;29279;50.858;4.392;2022-12-08T08:23:31;4.20;99.90
43679;DHT22;29279;50.858;4.392;2022-12-08T08:26:04;4.20;99.90
43679;DHT22;29279;50.858;4.392;2022-12-08T08:28:30;4.40;99.90
43679;DHT22;29279;50.858;4.392;2022-12-08T08:30:57;4.40;99.90
43679;DHT22;29279;50.858;4.392;2022-12-08T08:33:22;4.40;99.90
43679;DHT22;29279;50.858;4.392;2022-12-08T08:35:48;4.40;99.90
43679;DHT22;29279;50.858;4.392;2022-12-08T08:38:14;4.40;99.90
43679;DHT22;29279;50.858;4.392;2022-12-08T08:40:39;4.50;99.90
43679;DHT22;29279;50.858;4.392;2022-12-08T08:43:06;4.50;99.90
43679;DHT22;29279;50.858;4.392;2022-12-08T08:45:32;4.50;99.90
43679;DHT22;29279;50.858;4.392;2022-12-08T08:47:58;4.60;99.90
43679;DHT22;29279;50.858;4.392;2022-12-08T08:50:24;4.40;99.90
43679;DHT22;29279;50.858;4.392;2022-12-08T08:52:50;4.40;99.90
43679;DHT22;29279;50.858;4.392;2022-12-08T08:55:16;4.60;99.90
43679;DHT22;29279;50.858;4.392;2022-12-08T08:57:42;4.60;99.90
43679;DHT22;29279;50.858;4.392;2022-12-08T09:00:08;4.70;99.90
43679;DHT22;29279;50.858;4.392;2022-12-08T09:02:35;4.70;99.90
43679;DHT22;29279;50.858;4.392;2022-12-08T09:05:01;4.80;99.90
43679;DHT22;29279;50.858;4.392;2022-12-08T09:07:27;4.70;99.90
43679;DHT22;29279;50.858;4.392;2022-12-08T09:09:53;4.70;99.90
43679;DHT22;29279;50.858;4.392;2022-12-08T09:12:20;4.60;99.90
43679;DHT22;29279;50.858;4.392;2022-12-08T09:14:46;4.70;99.90
43679;DHT22;29279;50.858;4.392;2022-12-08T09:17:12;4.80;99.90
43679;DHT22;29279;50.858;4.392;2022-12-08T09:19:38;4.70;99.90
43679;DHT22;29279;50.858;4.392;2022-12-08T09:22:03;4.70;99.90
43679;DHT22;29279;50.858;4.392;2022-12-08T09:24:29;4.60;99.90
43679;DHT22;29279;50.858;4.392;2022-12-08T09:26:55;4.70;99.90
43679;DHT22;29279;50.858;4.392;2022-12-08T09:29:21;4.70;99.90
43679;DHT22;29279;50.858;4.392;2022-12-08T09:31:46;4.70;99.90
43679;DHT22;29279;50.858;4.392;2022-12-08T09:34:12;4.70;99.90
43679;DHT22;29279;50.858;4.392;2022-12-08T09:36:39;4.80;99.90
43679;DHT22;29279;50.858;4.392;2022-12-08T09:39:05;4.80;99.90
43679;DHT22;29279;50.858;4.392;2022-12-08T09:41:43;4.70;99.90
43679;DHT22;29279;50.858;4.392;2022-12-08T09:44:54;4.70;99.90
43679;DHT22;29279;50.858;4.392;2022-12-08T09:47:31;4.70;99.90
43679;DHT22;29279;50.858;4.392;2022-12-08T09:53:07;4.90;99.90
43679;DHT22;29279;50.858;4.392;2022-12-08T09:55:42;4.90;99.90
43679;DHT22;29279;50.858;4.392;2022-12-08T09:58:26;4.90;99.90
43679;DHT22;29279;50.858;4.392;2022-12-08T10:00:54;5.10;99.90
43679;DHT22;29279;50.858;4.392;2022-12-08T10:03:23;5.10;99.90
43679;DHT22;29279;50.858;4.392;2022-12-08T10:06:45;5.00;99.90
43679;DHT22;29279;50.858;4.392;2022-12-08T10:16:47;5.30;99.90
43679;DHT22;29279;50.858;4.392;2022-12-08T10:19:21;5.90;99.90
43679;DHT22;29279;50.858;4.392;2022-12-08T10:21:48;7.20;99.90
43679;DHT22;29279;50.858;4.392;2022-12-08T10:26:48;9.20;99.90
43679;DHT22;29279;50.858;4.392;2022-12-08T10:29:14;9.50;99.90
43679;DHT22;29279;50.858;4.392;2022-12-08T10:31:40;10.30;99.90
43679;DHT22;29279;50.858;4.392;2022-12-08T10:34:18;10.70;99.90
43679;DHT22;29279;50.858;4.392;2022-12-08T10:42:21;12.10;99.90
43679;DHT22;29279;50.858;4.392;2022-12-08T10:44:53;12.60;99.90
43679;DHT22;29279;50.858;4.392;2022-12-08T10:47:25;13.30;99.90
43679;DHT22;29279;50.858;4.392;2022-12-08T10:51:18;13.40;99.90
43679;DHT22;29279;50.858;4.392;2022-12-08T10:55:48;13.90;98.80
43679;DHT22;29279;50.858;4.392;2022-12-08T10:58:33;14.00;98.20
43679;DHT22;29279;50.858;4.392;2022-12-08T11:01:08;13.90;97.90
43679;DHT22;29279;50.858;4.392;2022-12-08T11:03:51;13.60;98.30
43679;DHT22;29279;50.858;4.392;2022-12-08T11:08:50;13.60;97.60
43679;DHT22;29279;50.858;4.392;2022-12-08T11:11:17;13.80;98.00
43679;DHT22;29279;50.858;4.392;2022-12-08T11:13:43;14.50;97.40
43679;DHT22;29279;50.858;4.392;2022-12-08T11:16:13;14.70;96.70
43679;DHT22;29279;50.858;4.392;2022-12-08T11:19:02;15.10;96.20
43679;DHT22;29279;50.858;4.392;2022-12-08T11:21:36;15.30;95.60
43679;DHT22;29279;50.858;4.392;2022-12-08T11:26:43;14.50;96.00
43679;DHT22;29279;50.858;4.392;2022-12-08T11:29:12;14.80;96.00
43679;DHT22;29279;50.858;4.392;2022-12-08T11:31:42;15.40;95.20
43679;DHT22;29279;50.858;4.392;2022-12-08T11:36:56;15.70;94.30
43679;DHT22;29279;50.858;4.392;2022-12-08T11:39:25;15.90;93.80
43679;DHT22;29279;50.858;4.392;2022-12-08T11:41:53;16.40;93.10
43679;DHT22;29279;50.858;4.392;2022-12-08T11:44:44;16.20;92.90
43679;DHT22;29279;50.858;4.392;2022-12-08T11:49:44;15.90;92.80
43679;DHT22;29279;50.858;4.392;2022-12-08T11:52:26;16.30;93.20
43679;DHT22;29279;50.858;4.392;2022-12-08T11:57:58;16.90;92.00
43679;DHT22;29279;50.858;4.392;2022-12-08T12:00:25;17.10;91.90
43679;DHT22;29279;50.858;4.392;2022-12-08T12:03:03;17.30;91.40
43679;DHT22;29279;50.858;4.392;2022-12-08T12:05:54;17.10;91.40
43679;DHT22;29279;50.858;4.392;2022-12-08T12:13:44;17.30;91.30
43679;DHT22;29279;50.858;4.392;2022-12-08T12:16:21;17.40;90.90
43679;DHT22;29279;50.858;4.392;2022-12-08T12:18:56;17.90;90.70
43679;DHT22;29279;50.858;4.392;2022-12-08T12:21:43;17.60;90.30
43679;DHT22;29279;50.858;4.392;2022-12-08T12:26:59;15.50;92.00
43679;DHT22;29279;50.858;4.392;2022-12-08T12:29:29;15.30;92.20
43679;DHT22;29279;50.858;4.392;2022-12-08T12:32:16;16.20;91.80
43679;DHT22;29279;50.858;4.392;2022-12-08T12:34:56;16.10;91.70
43679;DHT22;29279;50.858;4.392;2022-12-08T12:37:26;15.00;92.30
43679;DHT22;29279;50.858;4.392;2022-12-08T12:40:05;14.50;92.40
43679;DHT22;29279;50.858;4.392;2022-12-08T12:42:41;13.50;93.90
43679;DHT22;29279;50.858;4.392;2022-12-08T12:45:31;13.00;94.40
43679;DHT22;29279;50.858;4.392;2022-12-08T12:55:59;14.10;94.30
43679;DHT22;29279;50.858;4.392;2022-12-08T13:03:50;15.50;92.70
43679;DHT22;29279;50.858;4.392;2022-12-08T13:06:31;15.90;92.30
43679;DHT22;29279;50.858;4.392;2022-12-08T13:08:58;15.60;92.00
43679;DHT22;29279;50.858;4.392;2022-12-08T13:11:25;15.60;92.30
43679;DHT22;29279;50.858;4.392;2022-12-08T13:13:59;14.40;92.70
43679;DHT22;29279;50.858;4.392;2022-12-08T13:16:27;13.80;93.60
43679;DHT22;29279;50.858;4.392;2022-12-08T13:18:59;14.10;93.60
43679;DHT22;29279;50.858;4.392;2022-12-08T13:21:35;13.80;93.80
43679;DHT22;29279;50.858;4.392;2022-12-08T13:26:46;13.20;94.40
43679;DHT22;29279;50.858;4.392;2022-12-08T13:29:20;13.30;94.10
43679;DHT22;29279;50.858;4.392;2022-12-08T13:31:57;13.00;94.80
43679;DHT22;29279;50.858;4.392;2022-12-08T13:47:15;9.70;99.20
43679;DHT22;29279;50.858;4.392;2022-12-08T13:49:53;9.30;99.80
43679;DHT22;29279;50.858;4.392;2022-12-08T13:52:36;9.10;99.90
43679;DHT22;29279;50.858;4.392;2022-12-08T13:55:03;8.80;99.90
43679;DHT22;29279;50.858;4.392;2022-12-08T13:57:32;8.70;99.90
43679;DHT22;29279;50.858;4.392;2022-12-08T14:00:00;8.40;99.90
43679;DHT22;29279;50.858;4.392;2022-12-08T14:02:34;8.20;99.90
43679;DHT22;29279;50.858;4.392;2022-12-08T14:05:01;7.90;99.90
43679;DHT22;29279;50.858;4.392;2022-12-08T14:07:27;7.80;99.90
43679;DHT22;29279;50.858;4.392;2022-12-08T14:09:53;7.70;99.90
43679;DHT22;29279;50.858;4.392;2022-12-08T14:12:24;7.70;99.90
43679;DHT22;29279;50.858;4.392;2022-12-08T14:14:56;7.70;99.90
43679;DHT22;29279;50.858;4.392;2022-12-08T14:17:22;7.60;99.90
43679;DHT22;29279;50.858;4.392;2022-12-08T14:22:39;7.80;99.90
43679;DHT22;29279;50.858;4.392;2022-12-08T14:25:08;7.70;99.90
43679;DHT22;29279;50.858;4.392;2022-12-08T14:27:36;7.90;99.90
43679;DHT22;29279;50.858;4.392;2022-12-08T14:32:46;8.20;99.90
43679;DHT22;29279;50.858;4.392;2022-12-08T14:35:21;8.10;99.90
43679;DHT22;29279;50.858;4.392;2022-12-08T14:37:49;8.20;99.90
43679;DHT22;29279;50.858;4.392;2022-12-08T14:56:07;8.00;99.90
43679;DHT22;29279;50.858;4.392;2022-12-08T14:58:37;8.00;99.90
43679;DHT22;29279;50.858;4.392;2022-12-08T15:01:05;7.80;99.90
43679;DHT22;29279;50.858;4.392;2022-12-08T15:03:33;7.70;99.90
43679;DHT22;29279;50.858;4.392;2022-12-08T15:06:03;7.60;99.90
43679;DHT22;29279;50.858;4.392;2022-12-08T15:08:31;7.50;99.90
43679;DHT22;29279;50.858;4.392;2022-12-08T15:11:33;7.60;99.90
43679;DHT22;29279;50.858;4.392;2022-12-08T15:13:59;7.80;99.90
43679;DHT22;29279;50.858;4.392;2022-12-08T15:16:37;7.80;99.90
43679;DHT22;29279;50.858;4.392;2022-12-08T15:19:05;7.80;99.90
43679;DHT22;29279;50.858;4.392;2022-12-08T15:21:37;7.60;99.90
43679;DHT22;29279;50.858;4.392;2022-12-08T15:24:03;7.40;99.90
43679;DHT22;29279;50.858;4.392;2022-12-08T15:26:39;7.30;99.90
43679;DHT22;29279;50.858;4.392;2022-12-08T15:29:22;7.30;99.90
43679;DHT22;29279;50.858;4.392;2022-12-08T15:31:50;7.20;99.90
43679;DHT22;29279;50.858;4.392;2022-12-08T15:34:17;7.20;99.90
43679;DHT22;29279;50.858;4.392;2022-12-08T15:36:43;7.10;99.90
43679;DHT22;29279;50.858;4.392;2022-12-08T15:39:30;7.10;99.90
43679;DHT22;29279;50.858;4.392;2022-12-08T15:41:57;7.00;99.90
43679;DHT22;29279;50.858;4.392;2022-12-08T15:44:23;7.10;99.90
43679;DHT22;29279;50.858;4.392;2022-12-08T15:46:49;7.00;99.90
43679;DHT22;29279;50.858;4.392;2022-12-08T15:49:22;6.90;99.90
43679;DHT22;29279;50.858;4.392;2022-12-08T15:51:49;6.90;99.90
43679;DHT22;29279;50.858;4.392;2022-12-08T15:54:15;6.90;99.90
43679;DHT22;29279;50.858;4.392;2022-12-08T15:56:49;6.80;99.90
43679;DHT22;29279;50.858;4.392;2022-12-08T15:59:18;6.90;99.90
43679;DHT22;29279;50.858;4.392;2022-12-08T16:01:44;7.00;99.90
43679;DHT22;29279;50.858;4.392;2022-12-08T16:04:15;7.00;99.90
43679;DHT22;29279;50.858;4.392;2022-12-08T16:06:49;7.00;99.90
43679;DHT22;29279;50.858;4.392;2022-12-08T16:09:19;6.80;99.90
43679;DHT22;29279;50.858;4.392;2022-12-08T16:11:45;6.70;99.90
43679;DHT22;29279;50.858;4.392;2022-12-08T16:14:30;6.50;99.90
43679;DHT22;29279;50.858;4.392;2022-12-08T16:16:55;6.50;99.90
43679;DHT22;29279;50.858;4.392;2022-12-08T16:19:21;6.50;99.90
43679;DHT22;29279;50.858;4.392;2022-12-08T16:21:47;6.50;99.90
43679;DHT22;29279;50.858;4.392;2022-12-08T16:24:13;6.40;99.90
43679;DHT22;29279;50.858;4.392;2022-12-08T16:26:38;6.40;99.90
43679;DHT22;29279;50.858;4.392;2022-12-08T16:29:05;6.50;99.90
43679;DHT22;29279;50.858;4.392;2022-12-08T16:31:30;6.50;99.90
43679;DHT22;29279;50.858;4.392;2022-12-08T16:33:56;6.50;99.90
43679;DHT22;29279;50.858;4.392;2022-12-08T16:36:22;6.40;99.90
43679;DHT22;29279;50.858;4.392;2022-12-08T16:38:47;6.20;99.90
43679;DHT22;29279;50.858;4.392;2022-12-08T16:41:14;6.10;99.90
43679;DHT22;29279;50.858;4.392;2022-12-08T16:44:03;6.20;99.90
43679;DHT22;29279;50.858;4.392;2022-12-08T16:46:29;6.10;99.90
43679;DHT22;29279;50.858;4.392;2022-12-08T16:48:55;6.00;99.90
43679;DHT22;29279;50.858;4.392;2022-12-08T16:51:24;5.90;99.90
43679;DHT22;29279;50.858;4.392;2022-12-08T16:53:50;5.80;99.90
43679;DHT22;29279;50.858;4.392;2022-12-08T16:56:17;5.80;99.90
43679;DHT22;29279;50.858;4.392;2022-12-08T16:58:44;5.80;99.90
43679;DHT22;29279;50.858;4.392;2022-12-08T17:01:11;5.80;99.90
43679;DHT22;29279;50.858;4.392;2022-12-08T17:03:39;5.80;99.90
43679;DHT22;29279;50.858;4.392;2022-12-08T17:06:10;5.90;99.90
43679;DHT22;29279;50.858;4.392;2022-12-08T17:08:37;5.90;99.90
43679;DHT22;29279;50.858;4.392;2022-12-08T17:11:04;5.80;99.90
43679;DHT22;29279;50.858;4.392;2022-12-08T17:13:37;5.60;99.90
43679;DHT22;29279;50.858;4.392;2022-12-08T17:16:09;5.70;99.90
43679;DHT22;29279;50.858;4.392;2022-12-08T17:18:36;5.80;99.90
43679;DHT22;29279;50.858;4.392;2022-12-08T17:21:05;5.90;99.90
43679;DHT22;29279;50.858;4.392;2022-12-08T17:23:32;6.00;99.90
43679;DHT22;29279;50.858;4.392;2022-12-08T17:25:59;5.90;99.90
43679;DHT22;29279;50.858;4.392;2022-12-08T17:28:25;5.90;99.90
43679;DHT22;29279;50.858;4.392;2022-12-08T17:30:52;5.70;99.90
43679;DHT22;29279;50.858;4.392;2022-12-08T17:33:17;5.60;99.90
43679;DHT22;29279;50.858;4.392;2022-12-08T17:35:48;5.50;99.90
43679;DHT22;29279;50.858;4.392;2022-12-08T17:38:14;5.40;99.90
43679;DHT22;29279;50.858;4.392;2022-12-08T17:40:40;5.40;99.90
43679;DHT22;29279;50.858;4.392;2022-12-08T17:43:06;5.50;99.90
43679;DHT22;29279;50.858;4.392;2022-12-08T17:45:31;5.40;99.90
43679;DHT22;29279;50.858;4.392;2022-12-08T17:47:57;5.30;99.90
43679;DHT22;29279;50.858;4.392;2022-12-08T17:50:22;5.10;99.90
43679;DHT22;29279;50.858;4.392;2022-12-08T17:52:49;5.00;99.90
43679;DHT22;29279;50.858;4.392;2022-12-08T17:55:15;4.80;99.90
43679;DHT22;29279;50.858;4.392;2022-12-08T17:57:41;4.70;99.90
43679;DHT22;29279;50.858;4.392;2022-12-08T18:00:09;4.70;99.90